Time;durP1;ratioP1;P1;durP2;ratioP2;P2;SDS_P1;SDS_P2;PMS_P1;PMS_P2;Temp;Humidity;BMP_temperature;BMP_pressure;BME280_temperature;BME280_humidity;BME280_pressure;Samples;Min_cycle;Max_cycle;Signal;HPM_P1;HPM_P2
2022/03/08 00:01:06;;;;;;;5.32;2.67;;;3.50;91.90;;;;;;4183185;28;20164;-87
2022/03/08 00:03:07;;;;;;;6.13;3.45;;;2.70;91.60;;;;;;4178833;28;20084;-88
2022/03/08 00:05:08;;;;;;;6.43;2.63;;;3.70;91.80;;;;;;4167004;28;20119;-88
2022/03/08 00:07:10;;;;;;;6.70;3.40;;;3.40;92.00;;;;;;4183970;28;20049;-87
2022/03/08 00:09:11;;;;;;;6.45;2.58;;;2.40;91.60;;;;;;4160417;28;20046;-88
2022/03/08 00:11:12;;;;;;;5.10;3.17;;;2.50;91.80;;;;;;4162675;28;20184;-87
2022/03/08 00:13:15;;;;;;;5.00;2.88;;;2.40;91.70;;;;;;4184140;28;20037;-87
2022/03/08 00:15:21;;;;;;;5.40;3.03;;;3.40;92.30;;;;;;4167131;28;20053;-87
2022/03/08 00:17:22;;;;;;;8.23;3.15;;;3.80;92.40;;;;;;4156366;28;20136;-87
2022/03/08 00:19:23;;;;;;;5.88;3.00;;;2.40;92.10;;;;;;4180733;28;20048;-88
2022/03/08 00:21:24;;;;;;;13.90;3.00;;;3.60;92.60;;;;;;4185215;28;20759;-87
2022/03/08 00:23:26;;;;;;;5.47;3.22;;;2.20;92.40;;;;;;4183467;28;20045;-88
2022/03/08 00:25:27;;;;;;;6.57;3.25;;;3.00;92.60;;;;;;4166884;28;20050;-88
2022/03/08 00:27:30;;;;;;;4.75;2.92;;;2.60;92.50;;;;;;4163402;28;20045;-88
2022/03/08 00:29:31;;;;;;;7.97;3.25;;;2.40;92.50;;;;;;4183137;28;20052;-87
2022/03/08 00:31:32;;;;;;;7.85;3.38;;;3.40;92.90;;;;;;4162993;28;20069;-88
2022/03/08 00:33:36;;;;;;;6.32;3.50;;;3.00;93.00;;;;;;4180798;28;20114;-88
2022/03/08 00:35:38;;;;;;;6.68;3.58;;;2.80;93.30;;;;;;4183938;28;20457;-88
2022/03/08 00:37:39;;;;;;;6.35;3.25;;;1.50;92.80;;;;;;4185036;28;20059;-88
2022/03/08 00:39:40;;;;;;;5.15;3.03;;;2.90;93.10;;;;;;4167700;28;20128;-88
2022/03/08 00:41:41;;;;;;;5.82;3.05;;;2.70;93.20;;;;;;4184351;28;20068;-87
2022/03/08 00:43:42;;;;;;;5.32;3.08;;;2.90;93.60;;;;;;4167371;28;20050;-88
2022/03/08 00:45:44;;;;;;;8.15;3.67;;;2.50;93.70;;;;;;4184794;28;20071;-87
2022/03/08 00:47:45;;;;;;;5.28;3.22;;;3.10;93.80;;;;;;4167780;28;20626;-87
2022/03/08 00:49:46;;;;;;;6.53;3.50;;;3.40;93.70;;;;;;4184673;28;20115;-88
2022/03/08 00:51:47;;;;;;;5.80;3.35;;;1.00;93.30;;;;;;4184946;28;20612;-88
2022/03/08 00:53:49;;;;;;;6.68;3.60;;;1.90;93.70;;;;;;4168696;28;20053;-88
2022/03/08 00:55:51;;;;;;;8.27;3.90;;;2.00;94.00;;;;;;4182443;28;20045;-88
2022/03/08 00:57:52;;;;;;;6.55;3.35;;;1.90;93.70;;;;;;4187237;28;20036;-88
2022/03/08 00:59:54;;;;;;;4.32;2.97;;;2.20;93.80;;;;;;4186476;28;20044;-88
2022/03/08 01:01:55;;;;;;;7.25;3.78;;;1.80;93.60;;;;;;4168240;28;20080;-88
2022/03/08 01:03:57;;;;;;;5.03;3.17;;;2.80;94.20;;;;;;4168132;28;20502;-88
2022/03/08 01:06:01;;;;;;;7.10;3.58;;;2.30;94.40;;;;;;4152092;28;20056;-88
2022/03/08 01:08:03;;;;;;;5.70;3.03;;;1.80;93.90;;;;;;4151867;28;20132;-88
2022/03/08 01:10:06;;;;;;;5.57;3.17;;;1.70;93.80;;;;;;4170935;28;20077;-88
2022/03/08 01:12:08;;;;;;;6.55;2.95;;;1.70;93.80;;;;;;4169719;28;20057;-88
2022/03/08 01:14:10;;;;;;;5.28;3.30;;;1.70;94.00;;;;;;4152041;28;20136;-87
2022/03/08 01:16:10;;;;;;;5.65;3.15;;;2.60;94.40;;;;;;4152288;28;20042;-87
2022/03/08 01:18:12;;;;;;;4.97;3.13;;;1.70;94.30;;;;;;4151711;28;20076;-88
2022/03/08 01:20:14;;;;;;;6.07;3.35;;;2.50;94.50;;;;;;4169394;28;20534;-88
2022/03/08 01:22:15;;;;;;;7.18;3.30;;;2.50;94.60;;;;;;4169290;28;20049;-88
2022/03/08 01:24:16;;;;;;;7.38;3.30;;;0.60;94.20;;;;;;4167396;28;20055;-88
2022/03/08 01:26:18;;;;;;;5.75;3.28;;;1.60;94.50;;;;;;4152073;28;20496;-87
2022/03/08 01:28:20;;;;;;;5.05;2.88;;;2.80;94.90;;;;;;4152921;28;20041;-87
2022/03/08 01:30:24;;;;;;;5.53;3.08;;;1.50;94.40;;;;;;4168030;28;20049;-87
2022/03/08 01:32:25;;;;;;;7.13;3.47;;;1.40;94.70;;;;;;4180972;28;20064;-88
2022/03/08 01:34:27;;;;;;;4.50;2.72;;;1.40;94.80;;;;;;4186398;28;20055;-88
2022/03/08 01:36:27;;;;;;;5.47;3.00;;;2.90;95.10;;;;;;4167675;28;20053;-88
2022/03/08 01:38:29;;;;;;;5.68;3.50;;;1.40;94.90;;;;;;4167414;28;20389;-88
2022/03/08 01:40:30;;;;;;;6.57;3.90;;;2.70;95.10;;;;;;4185532;28;20049;-87
2022/03/08 01:42:32;;;;;;;5.88;3.08;;;1.00;94.90;;;;;;4195048;28;20386;-86
2022/03/08 01:44:35;;;;;;;5.53;3.25;;;0.80;94.90;;;;;;4180474;28;20474;-88
2022/03/08 01:46:37;;;;;;;6.53;3.53;;;1.90;95.30;;;;;;4171525;28;20416;-87
2022/03/08 01:48:39;;;;;;;6.80;3.92;;;2.30;95.50;;;;;;4185052;28;20514;-88
2022/03/08 01:50:41;;;;;;;5.32;3.55;;;2.50;95.70;;;;;;4171170;28;20458;-87
2022/03/08 01:52:44;;;;;;;7.38;4.07;;;1.20;95.30;;;;;;4167509;28;20169;-87
2022/03/08 01:54:46;;;;;;;7.25;3.92;;;1.00;95.20;;;;;;4184483;28;20491;-87
2022/03/08 01:56:47;;;;;;;7.93;3.50;;;2.40;96.00;;;;;;4184560;28;20048;-86
2022/03/08 01:58:48;;;;;;;6.60;3.83;;;1.20;95.60;;;;;;4184856;28;20061;-87
2022/03/08 02:00:50;;;;;;;6.18;3.83;;;1.10;95.80;;;;;;4184591;28;20047;-87
2022/03/08 02:02:54;;;;;;;6.10;3.83;;;2.40;96.00;;;;;;4185118;28;20072;-88
2022/03/08 02:04:55;;;;;;;8.52;4.60;;;2.30;96.10;;;;;;4168423;28;20053;-87
2022/03/08 02:06:57;;;;;;;8.07;4.13;;;2.40;96.10;;;;;;4185003;28;20128;-87
2022/03/08 02:09:00;;;;;;;6.70;4.38;;;1.10;95.90;;;;;;4183916;28;20041;-87
2022/03/08 02:11:02;;;;;;;7.32;4.45;;;1.00;96.00;;;;;;4168018;28;20049;-87
2022/03/08 02:13:02;;;;;;;7.82;4.32;;;2.40;96.50;;;;;;4183999;28;20044;-87
2022/03/08 02:15:22;;;;;;;6.47;3.88;;;1.90;96.20;;;;;;4185175;28;20037;-87
2022/03/08 02:17:23;;;;;;;9.27;4.25;;;1.00;96.10;;;;;;4168230;28;20102;-87
2022/03/08 02:19:24;;;;;;;7.53;3.90;;;2.00;96.20;;;;;;4184571;28;20084;-86
2022/03/08 02:21:26;;;;;;;7.75;4.47;;;1.60;96.20;;;;;;4184507;28;20052;-87
2022/03/08 02:23:28;;;;;;;7.70;4.32;;;1.90;96.40;;;;;;4185817;28;20067;-87
2022/03/08 02:25:29;;;;;;;5.10;3.70;;;2.00;96.30;;;;;;4167834;28;20045;-87
2022/03/08 02:27:31;;;;;;;7.72;4.03;;;1.80;96.40;;;;;;4185459;28;20048;-87
2022/03/08 02:29:31;;;;;;;7.55;3.85;;;0.80;96.00;;;;;;4185261;28;20095;-87
2022/03/08 02:31:32;;;;;;;9.73;4.68;;;-0.30;95.80;;;;;;4179679;28;20435;-87
2022/03/08 02:33:33;;;;;;;9.73;5.30;;;2.30;96.70;;;;;;4184313;28;20052;-87
2022/03/08 02:35:36;;;;;;;7.75;3.92;;;2.10;96.50;;;;;;4169093;28;20052;-85
2022/03/08 02:37:47;;;;;;;8.00;4.47;;;0.80;96.20;;;;;;4185251;28;20491;-87
2022/03/08 02:39:51;;;;;;;9.07;3.95;;;0.70;96.40;;;;;;4167974;28;20080;-87
2022/03/08 02:41:52;;;;;;;8.50;4.32;;;0.00;96.40;;;;;;4168852;28;20049;-87
2022/03/08 02:43:53;;;;;;;8.60;4.50;;;0.70;96.60;;;;;;4185070;28;20091;-86
2022/03/08 02:45:54;;;;;;;7.30;4.25;;;1.90;97.00;;;;;;4186008;28;20048;-87
2022/03/08 02:47:56;;;;;;;9.10;4.72;;;1.20;96.90;;;;;;4183715;28;20057;-88
2022/03/08 02:49:59;;;;;;;8.00;4.88;;;1.60;97.10;;;;;;4185719;28;20044;-87
2022/03/08 02:52:01;;;;;;;8.98;4.30;;;1.70;97.30;;;;;;4184426;28;20055;-87
2022/03/08 02:54:01;;;;;;;7.93;4.70;;;0.70;97.00;;;;;;4185642;28;20048;-87
2022/03/08 02:56:02;;;;;;;7.60;5.35;;;0.70;97.00;;;;;;4185306;28;20053;-86
2022/03/08 02:58:06;;;;;;;9.63;5.10;;;0.70;97.10;;;;;;4168598;28;20045;-88
2022/03/08 03:00:10;;;;;;;8.35;5.05;;;0.90;97.10;;;;;;4185598;28;20595;-87
2022/03/08 03:02:11;;;;;;;8.98;4.90;;;0.30;96.90;;;;;;4169679;28;20381;-86
2022/03/08 03:04:12;;;;;;;8.68;4.70;;;-0.30;96.90;;;;;;4174293;28;20167;-87
2022/03/08 03:06:19;;;;;;;7.20;4.80;;;0.00;97.00;;;;;;4196493;28;20044;-86
2022/03/08 03:08:20;;;;;;;8.77;5.15;;;0.90;97.50;;;;;;4197139;28;20032;-86
2022/03/08 03:10:23;;;;;;;11.10;5.25;;;1.40;97.60;;;;;;4180755;28;20041;-87
2022/03/08 03:12:25;;;;;;;11.55;5.25;;;1.60;97.60;;;;;;4193765;28;20077;-87
2022/03/08 03:14:27;;;;;;;7.75;4.53;;;0.60;97.40;;;;;;4193317;28;20045;-88
2022/03/08 03:16:29;;;;;;;9.48;4.82;;;0.30;97.20;;;;;;4193630;28;20126;-87
2022/03/08 03:18:30;;;;;;;8.80;5.40;;;0.40;97.40;;;;;;4175933;28;20112;-87
2022/03/08 03:20:37;;;;;;;7.43;4.82;;;1.00;97.60;;;;;;4193935;28;20040;-86
2022/03/08 03:22:39;;;;;;;9.35;4.90;;;-0.30;97.40;;;;;;4193680;28;20045;-87
2022/03/08 03:24:41;;;;;;;8.00;4.82;;;0.80;97.60;;;;;;4172769;28;20381;-87
2022/03/08 03:26:43;;;;;;;9.00;5.18;;;0.30;97.70;;;;;;4191596;28;20041;-87
2022/03/08 03:28:45;;;;;;;7.88;5.28;;;0.10;97.60;;;;;;4188668;28;20041;-88
2022/03/08 03:30:47;;;;;;;10.57;5.38;;;-0.80;97.40;;;;;;4191809;28;20037;-87
2022/03/08 03:32:47;;;;;;;10.95;5.55;;;1.00;97.90;;;;;;4172376;28;20057;-87
2022/03/08 03:34:50;;;;;;;8.50;5.55;;;1.30;98.20;;;;;;4191009;28;20103;-87
2022/03/08 03:36:51;;;;;;;10.85;5.28;;;0.30;97.80;;;;;;4190246;28;20045;-88
2022/03/08 03:38:56;;;;;;;7.70;4.72;;;0.20;98.00;;;;;;4191429;28;20055;-87
2022/03/08 03:40:59;;;;;;;7.85;4.85;;;0.20;97.90;;;;;;4189297;28;20075;-87
2022/03/08 03:43:01;;;;;;;10.35;5.40;;;0.70;98.10;;;;;;4189805;28;20045;-88
2022/03/08 03:45:05;;;;;;;10.23;5.20;;;1.00;98.20;;;;;;4190474;28;20063;-88
2022/03/08 03:47:06;;;;;;;7.63;4.75;;;0.20;97.70;;;;;;4204953;28;20044;-87
2022/03/08 03:49:07;;;;;;;9.02;5.05;;;0.20;98.00;;;;;;4173115;28;20124;-86
2022/03/08 03:51:09;;;;;;;9.50;5.05;;;0.10;97.90;;;;;;4172958;28;20050;-88
2022/03/08 03:53:12;;;;;;;9.85;6.30;;;0.10;97.90;;;;;;4172156;28;20060;-87
2022/03/08 03:55:15;;;;;;;9.40;5.95;;;0.10;98.20;;;;;;4190096;28;20037;-86
2022/03/08 03:57:15;;;;;;;9.88;5.75;;;0.10;98.30;;;;;;4188874;28;20037;-87
2022/03/08 03:59:17;;;;;;;14.65;5.80;;;1.30;98.70;;;;;;4188898;28;20045;-87
2022/03/08 04:01:19;;;;;;;9.52;5.72;;;0.10;98.50;;;;;;4173610;28;20045;-87
2022/03/08 04:03:21;;;;;;;10.93;5.95;;;0.10;98.40;;;;;;4193636;28;20080;-87
2022/03/08 04:05:23;;;;;;;12.20;5.97;;;0.20;98.40;;;;;;4197311;28;20047;-87
2022/03/08 04:07:23;;;;;;;14.15;6.40;;;0.70;98.80;;;;;;4194288;28;20044;-87
2022/03/08 04:09:25;;;;;;;12.05;6.28;;;0.10;98.80;;;;;;4173051;28;20128;-88
2022/03/08 04:11:26;;;;;;;9.02;5.32;;;0.10;98.60;;;;;;4173947;28;20050;-86
2022/03/08 04:13:27;;;;;;;11.02;6.35;;;-0.40;98.50;;;;;;4192540;28;20074;-87
2022/03/08 04:15:30;;;;;;;11.65;6.45;;;-0.30;98.60;;;;;;4173312;28;20091;-87
2022/03/08 04:17:31;;;;;;;9.20;5.82;;;-0.40;98.50;;;;;;4190506;28;20110;-87
2022/03/08 04:19:33;;;;;;;10.52;6.28;;;0.10;98.70;;;;;;4171817;28;20056;-87
2022/03/08 04:21:35;;;;;;;9.35;5.82;;;0.00;98.80;;;;;;4189329;28;20069;-86
2022/03/08 04:23:37;;;;;;;13.63;6.35;;;0.30;98.80;;;;;;4171103;28;20207;-86
2022/03/08 04:25:39;;;;;;;10.20;6.15;;;-0.70;98.80;;;;;;4170707;28;20061;-86
2022/03/08 04:27:40;;;;;;;17.33;6.93;;;1.30;99.10;;;;;;4187430;28;20075;-86
2022/03/08 04:29:42;;;;;;;10.15;6.10;;;1.10;98.90;;;;;;4188149;28;20041;-87
2022/03/08 04:31:44;;;;;;;10.63;6.25;;;1.30;99.20;;;;;;4171221;28;20041;-87
2022/03/08 04:33:46;;;;;;;11.02;6.63;;;-0.10;98.80;;;;;;4170500;28;20061;-87
2022/03/08 04:35:48;;;;;;;10.10;6.28;;;-0.10;98.80;;;;;;4188539;28;20091;-86
2022/03/08 04:37:49;;;;;;;11.50;6.63;;;1.10;99.10;;;;;;4169911;28;20538;-86
2022/03/08 04:39:50;;;;;;;9.95;5.78;;;-0.40;98.80;;;;;;4182965;28;20041;-87
2022/03/08 04:41:51;;;;;;;11.27;6.32;;;-0.20;99.10;;;;;;4192340;28;20088;-87
2022/03/08 04:43:54;;;;;;;10.85;5.60;;;-0.10;99.00;;;;;;4190388;28;20041;-87
2022/03/08 04:45:55;;;;;;;8.82;5.53;;;-0.20;98.60;;;;;;4189218;28;20045;-87
2022/03/08 04:47:58;;;;;;;10.52;6.40;;;-0.10;98.90;;;;;;4188999;28;20487;-88
2022/03/08 04:50:02;;;;;;;10.32;6.20;;;-0.40;99.00;;;;;;4155513;28;20046;-87
2022/03/08 04:52:04;;;;;;;10.77;6.43;;;0.70;99.10;;;;;;4189422;28;20100;-88
2022/03/08 04:54:05;;;;;;;11.55;6.05;;;-0.40;98.80;;;;;;4171278;28;20060;-87
2022/03/08 04:56:07;;;;;;;10.57;6.28;;;-0.30;98.90;;;;;;4189282;28;20132;-87
2022/03/08 04:58:09;;;;;;;11.98;6.22;;;0.40;99.30;;;;;;4173033;28;20050;-87
2022/03/08 05:00:12;;;;;;;12.15;7.57;;;-0.30;99.10;;;;;;4177067;28;20091;-86
2022/03/08 05:02:14;;;;;;;10.63;6.57;;;-0.40;99.00;;;;;;4188369;28;20049;-87
2022/03/08 05:04:15;;;;;;;13.73;6.75;;;0.10;99.30;;;;;;4171658;28;20531;-87
2022/03/08 05:06:18;;;;;;;11.35;6.45;;;-0.40;98.90;;;;;;4189710;28;20104;-87
2022/03/08 05:08:21;;;;;;;12.90;6.90;;;0.00;99.10;;;;;;4189646;28;20048;-87
2022/03/08 05:10:28;;;;;;;11.63;6.38;;;0.50;99.50;;;;;;4189629;28;20476;-87
2022/03/08 05:12:30;;;;;;;11.80;6.95;;;-0.40;99.50;;;;;;4187234;28;20051;-88
2022/03/08 05:14:32;;;;;;;9.98;6.00;;;-0.40;99.30;;;;;;4189963;28;20103;-89
2022/03/08 05:16:39;;;;;;;12.98;7.47;;;0.80;99.70;;;;;;4189546;28;20045;-89
2022/03/08 05:18:42;;;;;;;11.95;6.82;;;-0.50;99.60;;;;;;4187705;28;20045;-88
2022/03/08 05:20:43;;;;;;;11.10;7.40;;;-0.50;99.60;;;;;;4172041;28;20069;-88
2022/03/08 05:22:44;;;;;;;13.05;6.85;;;-0.40;99.90;;;;;;4171464;28;20124;-89
2022/03/08 05:24:46;;;;;;;13.00;7.50;;;0.00;99.90;;;;;;4172850;28;20056;-88
2022/03/08 05:26:49;;;;;;;12.45;7.85;;;-0.40;99.90;;;;;;4170527;28;20439;-88
2022/03/08 05:28:50;;;;;;;15.52;7.95;;;0.50;99.90;;;;;;4170711;28;20038;-87
2022/03/08 05:30:51;;;;;;;10.75;6.32;;;0.60;99.90;;;;;;4187280;28;20499;-88
2022/03/08 05:32:52;;;;;;;11.90;7.18;;;-0.40;99.90;;;;;;4187613;28;20059;-87
2022/03/08 05:34:53;;;;;;;12.82;7.10;;;-0.50;99.90;;;;;;4188686;28;20060;-87
2022/03/08 05:36:55;;;;;;;12.35;7.43;;;0.60;99.90;;;;;;4187345;28;20409;-87
2022/03/08 05:38:56;;;;;;;16.70;7.60;;;-0.50;99.90;;;;;;4188289;28;20055;-88
2022/03/08 05:41:00;;;;;;;13.15;7.63;;;0.40;99.90;;;;;;4172234;28;20073;-86
2022/03/08 05:43:01;;;;;;;13.25;6.70;;;-0.40;99.90;;;;;;4189112;28;20052;-88
2022/03/08 05:45:04;;;;;;;16.48;8.05;;;-0.40;99.90;;;;;;4172865;28;20045;-88
2022/03/08 05:47:12;;;;;;;15.95;8.10;;;-0.40;99.90;;;;;;4189062;28;20041;-87
2022/03/08 05:49:14;;;;;;;12.95;7.80;;;0.20;99.90;;;;;;4169609;28;20041;-87
2022/03/08 05:51:17;;;;;;;17.23;7.85;;;0.40;99.90;;;;;;4171287;28;20109;-89
2022/03/08 05:53:19;;;;;;;16.25;8.23;;;-1.60;99.90;;;;;;4170571;28;20104;-88
2022/03/08 05:55:24;;;;;;;19.17;8.68;;;1.00;99.90;;;;;;4187155;28;20045;-89
2022/03/08 05:57:24;;;;;;;14.63;7.53;;;-0.40;99.90;;;;;;4187035;28;20522;-88
2022/03/08 05:59:27;;;;;;;16.45;8.32;;;-0.40;99.90;;;;;;4188395;28;20051;-87
2022/03/08 06:01:30;;;;;;;13.77;8.05;;;-0.40;99.90;;;;;;4170954;28;20095;-87
2022/03/08 06:03:37;;;;;;;13.48;7.60;;;-0.50;99.90;;;;;;4187199;28;20141;-87
2022/03/08 06:05:39;;;;;;;13.45;7.38;;;-0.40;99.90;;;;;;4170800;28;20072;-88
2022/03/08 06:07:40;;;;;;;14.63;7.78;;;-0.20;99.90;;;;;;4170167;28;20120;-87
2022/03/08 06:09:42;;;;;;;13.18;7.55;;;-0.60;99.90;;;;;;4188326;28;20037;-87
2022/03/08 06:11:43;;;;;;;15.18;8.20;;;-0.50;99.90;;;;;;4186132;28;20546;-87
2022/03/08 06:13:51;;;;;;;16.02;7.75;;;-0.50;99.90;;;;;;4187263;28;20045;-88
2022/03/08 06:15:52;;;;;;;15.25;8.85;;;0.50;99.90;;;;;;4170682;28;20554;-87
2022/03/08 06:17:53;;;;;;;14.50;7.45;;;-0.10;99.90;;;;;;4187316;28;20041;-87
2022/03/08 06:19:53;;;;;;;20.60;7.43;;;-0.60;99.90;;;;;;4171326;28;20046;-87
2022/03/08 06:21:55;;;;;;;14.98;7.43;;;-1.00;99.90;;;;;;4169282;28;20049;-88
2022/03/08 06:23:57;;;;;;;13.80;7.82;;;0.20;99.90;;;;;;4169392;28;20072;-87
2022/03/08 06:26:00;;;;;;;17.65;7.63;;;0.60;99.90;;;;;;4168929;28;20577;-88
2022/03/08 06:28:01;;;;;;;16.33;8.40;;;0.40;99.90;;;;;;4169819;28;20481;-88
2022/03/08 06:30:04;;;;;;;17.83;8.32;;;-0.60;99.90;;;;;;4187708;28;20041;-88
2022/03/08 06:32:07;;;;;;;14.27;8.23;;;-0.30;99.90;;;;;;4168857;28;20049;-88
2022/03/08 06:34:09;;;;;;;14.95;7.78;;;-0.50;99.90;;;;;;4186003;28;20056;-87
2022/03/08 06:36:11;;;;;;;12.93;7.68;;;-0.70;99.90;;;;;;4168932;28;20084;-88
2022/03/08 06:38:13;;;;;;;23.02;8.43;;;0.00;99.90;;;;;;4187622;28;20036;-87
2022/03/08 06:40:14;;;;;;;16.77;7.95;;;-1.60;99.90;;;;;;4187683;28;20041;-88
2022/03/08 06:42:16;;;;;;;15.27;8.13;;;0.60;99.90;;;;;;4188031;28;20453;-87
2022/03/08 06:44:16;;;;;;;17.67;8.05;;;-0.50;99.90;;;;;;4174671;28;20045;-88
2022/03/08 06:46:17;;;;;;;13.20;7.35;;;-0.10;99.90;;;;;;4187440;28;20581;-87
2022/03/08 06:48:27;;;;;;;15.52;8.02;;;-0.30;99.90;;;;;;4185087;28;20055;-87
2022/03/08 06:50:32;;;;;;;15.23;7.57;;;0.90;99.90;;;;;;4187250;28;20033;-88
2022/03/08 06:52:48;;;;;;;;;;;;;;;;;;;;;
2022/03/08 06:55:11;;;;;;;;;;;;;;;;;;;;;
2022/03/08 06:57:51;;;;;;;;;;;;;;;;;;;;;
2022/03/08 07:00:07;;;;;;;15.93;7.68;;;0.60;99.90;;;;;;4185097;28;20076;-86
2022/03/08 07:02:16;;;;;;;15.18;7.78;;;0.20;99.80;;;;;;4174407;28;20052;-87
2022/03/08 07:04:25;;;;;;;15.93;8.18;;;0.30;99.90;;;;;;4175024;28;20037;-88
2022/03/08 07:06:54;;;;;;;15.60;8.88;;;0.50;99.60;;;;;;4191891;28;20108;-87
2022/03/08 07:09:02;;;;;;;18.65;8.48;;;0.60;99.40;;;;;;4191576;28;20084;-87
2022/03/08 07:11:17;;;;;;;;;;;;;;;;;;;;;
2022/03/08 07:13:33;;;;;;;14.15;7.03;;;1.20;99.20;;;;;;4188947;28;20493;-86
2022/03/08 07:15:40;;;;;;;16.60;8.05;;;1.60;98.50;;;;;;4195369;28;20098;-88
2022/03/08 07:17:45;;;;;;;13.63;6.68;;;1.00;97.60;;;;;;4186909;28;20103;-87
2022/03/08 07:19:47;;;;;;;13.60;7.07;;;1.90;97.10;;;;;;4170071;28;20057;-86
2022/03/08 07:21:50;;;;;;;19.38;7.22;;;3.20;97.30;;;;;;4188549;28;20075;-89
2022/03/08 07:23:51;;;;;;;15.73;6.80;;;2.90;97.10;;;;;;4170158;28;20041;-87
2022/03/08 07:25:52;;;;;;;17.73;8.13;;;2.60;96.90;;;;;;4186359;28;20041;-88
2022/03/08 07:27:54;;;;;;;14.38;7.15;;;2.70;96.90;;;;;;4169516;28;20051;-88
2022/03/08 07:29:54;;;;;;;15.50;7.13;;;2.70;96.60;;;;;;4186767;28;20150;-87
2022/03/08 07:31:56;;;;;;;15.27;7.88;;;3.70;96.70;;;;;;4169057;28;20485;-88
2022/03/08 07:33:58;;;;;;;16.48;7.75;;;3.70;96.80;;;;;;4157316;28;20061;-88
2022/03/08 07:36:00;;;;;;;13.50;7.28;;;1.90;96.40;;;;;;4182944;28;20426;-88
2022/03/08 07:38:01;;;;;;;16.30;7.18;;;4.40;96.60;;;;;;4188419;28;20108;-89
2022/03/08 07:40:06;;;;;;;12.25;6.88;;;4.80;96.40;;;;;;4173482;28;20045;-87
2022/03/08 07:42:07;;;;;;;15.40;6.82;;;3.80;95.80;;;;;;4186898;28;20057;-87
2022/03/08 07:44:09;;;;;;;19.05;7.90;;;5.30;95.90;;;;;;4186943;28;20402;-89
2022/03/08 07:46:11;;;;;;;13.00;7.60;;;4.60;95.60;;;;;;4185265;28;20060;-88
2022/03/08 07:48:14;;;;;;;16.42;7.32;;;5.30;95.70;;;;;;4169233;28;20434;-89
2022/03/08 07:50:15;;;;;;;13.40;7.13;;;4.60;95.40;;;;;;4184238;28;20073;-87
2022/03/08 07:52:18;;;;;;;15.95;8.77;;;5.60;95.50;;;;;;4201397;28;20170;-84
2022/03/08 07:54:19;;;;;;;13.00;6.50;;;4.50;95.00;;;;;;4185077;28;20590;-85
2022/03/08 07:56:19;;;;;;;16.52;7.88;;;5.60;94.80;;;;;;4185340;28;20053;-84
2022/03/08 07:58:21;;;;;;;13.70;6.28;;;;;;;;;;4184555;28;20044;-85
2022/03/08 08:00:23;;;;;;;15.30;7.70;;;;;;;;;;4166439;28;20057;-84
2022/03/08 08:02:24;;;;;;;11.45;6.32;;;;;;;;;;4183245;28;20486;-85
2022/03/08 08:04:25;;;;;;;12.90;7.20;;;;;;;;;;4183818;28;20049;-84
2022/03/08 08:06:26;;;;;;;13.35;7.10;;;;;;;;;;4186262;28;20091;-85
2022/03/08 08:08:28;;;;;;;11.93;6.97;;;;;;;;;;4182967;28;20140;-85
2022/03/08 08:10:29;;;;;;;19.48;8.13;;;;;;;;;;4182320;28;20049;-85
2022/03/08 08:12:30;;;;;;;16.48;7.13;;;;;;;;;;4181671;28;20518;-85
2022/03/08 08:14:31;;;;;;;9.90;5.97;;;;;;;;;;4183597;28;20049;-85
2022/03/08 08:16:32;;;;;;;10.90;6.85;;;;;;;;;;4183198;28;20045;-85
2022/03/08 08:18:34;;;;;;;12.73;7.00;;;;;;;;;;4183611;28;20090;-84
2022/03/08 08:20:35;;;;;;;13.85;6.60;;;;;;;;;;4183988;28;20446;-85
2022/03/08 08:22:36;;;;;;;14.43;6.22;;;;;;;;;;4183476;28;20479;-83
2022/03/08 08:24:40;;;;;;;18.88;7.60;;;;;;;;;;4184058;28;20123;-85
2022/03/08 08:26:41;;;;;;;12.63;6.50;;;;;;;;;;4183999;28;20052;-84
2022/03/08 08:28:42;;;;;;;13.55;6.35;;;;;;;;;;4183643;28;20052;-84
2022/03/08 08:30:43;;;;;;;12.35;6.82;;;;;;;;;;4183460;28;20117;-84
2022/03/08 08:32:44;;;;;;;10.13;6.53;;;;;;;;;;4164728;28;20590;-85
2022/03/08 08:34:45;;;;;;;12.48;6.72;;;;;;;;;;4179811;28;20068;-85
2022/03/08 08:36:47;;;;;;;14.45;6.82;;;;;;;;;;4182756;28;20454;-85
2022/03/08 08:38:48;;;;;;;11.23;6.05;;;;;;;;;;4183481;28;20096;-85
2022/03/08 08:40:49;;;;;;;8.68;6.00;;;;;;;;;;4183108;28;20041;-85
2022/03/08 08:42:50;;;;;;;11.13;5.53;;;;;;;;;;4183719;28;20040;-83
2022/03/08 08:44:51;;;;;;;12.25;6.05;;;;;;;;;;4184542;28;20063;-85
2022/03/08 08:46:53;;;;;;;11.25;6.88;;;;;;;;;;4183918;28;20056;-85
2022/03/08 08:48:55;;;;;;;12.77;6.70;;;;;;;;;;4183681;28;20048;-85
2022/03/08 08:50:56;;;;;;;10.30;6.32;;;;;;;;;;4184192;28;20053;-85
2022/03/08 08:52:57;;;;;;;10.48;6.25;;;;;;;;;;4182023;28;20124;-85
2022/03/08 08:54:58;;;;;;;12.63;7.10;;;;;;;;;;4182647;28;20049;-84
2022/03/08 08:56:59;;;;;;;10.27;5.75;;;;;;;;;;4181613;28;20095;-85
2022/03/08 08:59:00;;;;;;;10.68;6.50;;;;;;;;;;4183420;28;20056;-85
2022/03/08 09:01:01;;;;;;;9.95;6.28;;;;;;;;;;4181147;28;20089;-84
2022/03/08 09:03:03;;;;;;;11.30;5.93;;;;;;;;;;4183368;28;20048;-85
2022/03/08 09:05:05;;;;;;;9.80;5.75;;;;;;;;;;4183307;28;20128;-87
2022/03/08 09:07:06;;;;;;;16.63;6.18;;;;;;;;;;4184182;28;20049;-85
2022/03/08 09:09:07;;;;;;;12.10;5.63;;;;;;;;;;4181690;28;20079;-85
2022/03/08 09:11:10;;;;;;;9.32;5.43;;;;;;;;;;4183980;28;20124;-85
2022/03/08 09:13:11;;;;;;;10.68;6.43;;;;;;;;;;4182242;28;20572;-85
2022/03/08 09:15:12;;;;;;;8.40;5.53;;;;;;;;;;4183011;28;20041;-85
2022/03/08 09:17:13;;;;;;;9.68;4.93;;;;;;;;;;4181570;28;20090;-86
2022/03/08 09:19:14;;;;;;;8.07;5.40;;;;;;;;;;4182898;28;20056;-85
2022/03/08 09:21:16;;;;;;;11.20;4.72;;;;;;;;;;4181214;28;20550;-83
2022/03/08 09:23:18;;;;;;;10.27;5.80;;;;;;;;;;4180453;28;20128;-85
2022/03/08 09:25:19;;;;;;;9.68;5.75;;;;;;;;;;4182845;28;20136;-85
2022/03/08 09:27:20;;;;;;;9.32;5.55;;;;;;;;;;4183411;28;20041;-86
2022/03/08 09:29:22;;;;;;;8.85;5.25;;;;;;;;;;4183582;28;20098;-85
2022/03/08 09:31:23;;;;;;;9.25;5.30;;;;;;;;;;4186504;28;20139;-85
2022/03/08 09:33:24;;;;;;;11.27;5.55;;;;;;;;;;4186358;28;20115;-85
2022/03/08 09:35:26;;;;;;;8.75;4.95;;;;;;;;;;4187308;28;20387;-85
2022/03/08 09:37:27;;;;;;;7.15;4.55;;;;;;;;;;4186714;28;20109;-86
2022/03/08 09:39:28;;;;;;;9.70;4.68;;;;;;;;;;4182349;28;20053;-85
2022/03/08 09:41:29;;;;;;;9.35;5.45;;;;;;;;;;4181906;28;20063;-85
2022/03/08 09:43:31;;;;;;;7.05;5.13;;;;;;;;;;4182497;28;20040;-86
2022/03/08 09:45:33;;;;;;;8.77;4.07;;;;;;;;;;4181365;28;20092;-84
2022/03/08 09:47:34;;;;;;;9.18;4.90;;;;;;;;;;4181488;28;20127;-85
2022/03/08 09:49:35;;;;;;;7.32;4.30;;;;;;;;;;4181756;28;20051;-85
2022/03/08 09:51:39;;;;;;;7.78;4.50;;;;;;;;;;4180688;28;20045;-85
2022/03/08 09:53:43;;;;;;;7.30;4.10;;;;;;;;;;4181518;28;20059;-85
2022/03/08 09:55:45;;;;;;;8.23;4.60;;;;;;;;;;4182376;28;20073;-86
2022/03/08 09:57:48;;;;;;;7.28;4.43;;;;;;;;;;4180603;28;20041;-86
2022/03/08 09:59:49;;;;;;;6.72;4.15;;;;;;;;;;4180307;28;20053;-86
2022/03/08 10:01:50;;;;;;;7.65;4.13;;;;;;;;;;4182239;28;20049;-85
2022/03/08 10:03:51;;;;;;;6.70;4.47;;;;;;;;;;4182316;28;20076;-86
2022/03/08 10:05:55;;;;;;;10.95;4.40;;;;;;;;;;4181763;28;20077;-85
2022/03/08 10:08:04;;;;;;;9.40;4.70;;;;;;;;;;4182213;28;20128;-85
2022/03/08 10:10:06;;;;;;;8.88;4.50;;;;;;;;;;4181772;28;20059;-85
2022/03/08 10:12:17;;;;;;;8.15;4.43;;;;;;;;;;4180465;28;20425;-85
2022/03/08 10:14:39;;;;;;;8.15;4.93;;;;;;;;;;4179512;28;20060;-85
2022/03/08 10:16:44;;;;;;;7.88;4.38;;;;;;;;;;4180524;28;20060;-85
2022/03/08 10:18:46;;;;;;;8.23;4.55;;;;;;;;;;4181814;28;20033;-85
2022/03/08 10:20:47;;;;;;;10.38;6.07;;;;;;;;;;4181812;28;20033;-85
2022/03/08 10:22:48;;;;;;;6.78;4.68;;;;;;;;;;4181920;28;20040;-85
2022/03/08 10:24:50;;;;;;;8.00;4.57;;;;;;;;;;4181478;28;20041;-85
2022/03/08 10:26:52;;;;;;;6.93;4.20;;;;;;;;;;4181870;28;20033;-85
2022/03/08 10:28:56;;;;;;;9.40;4.88;;;;;;;;;;4182809;28;20045;-86
2022/03/08 10:30:58;;;;;;;10.02;4.25;;;;;;;;;;4181884;28;20495;-89
2022/03/08 10:32:59;;;;;;;6.53;3.97;;;;;;;;;;4181708;28;20115;-88
2022/03/08 10:35:01;;;;;;;6.18;4.03;;;;;;;;;;4183084;28;20049;-89
2022/03/08 10:37:07;;;;;;;7.53;5.03;;;;;;;;;;4183245;28;20120;-90
2022/03/08 10:39:11;;;;;;;6.30;4.15;;;;;;;;;;4182711;28;20083;-89
2022/03/08 10:41:19;;;;;;;6.10;3.88;;;;;;;;;;4171729;28;20501;-88
2022/03/08 10:43:21;;;;;;;7.97;4.20;;;;;;;;;;4177485;28;20112;-89
2022/03/08 10:45:22;;;;;;;6.22;3.83;;;;;;;;;;4173970;28;20097;-89
2022/03/08 10:47:24;;;;;;;5.57;3.95;;;;;;;;;;4165854;28;20042;-87
2022/03/08 10:49:25;;;;;;;9.13;4.00;;;;;;;;;;4157307;28;20049;-89
2022/03/08 10:51:32;;;;;;;5.90;3.88;;;;;;;;;;4166065;28;20483;-88
2022/03/08 10:53:35;;;;;;;6.07;3.35;;;;;;;;;;4172532;28;20041;-89
2022/03/08 10:55:38;;;;;;;6.60;4.00;;;;;;;;;;4182178;28;20427;-89
2022/03/08 10:57:40;;;;;;;7.35;4.15;;;;;;;;;;4165105;28;20064;-89
2022/03/08 10:59:53;;;;;;;5.30;3.55;;;;;;;;;;4157585;28;20045;-88
2022/03/08 11:01:54;;;;;;;6.55;3.45;;;;;;;;;;4184220;28;20044;-90
2022/03/08 11:03:56;;;;;;;6.47;3.72;;;;;;;;;;4165757;28;20523;-87
2022/03/08 11:06:05;;;;;;;7.70;3.90;;;;;;;;;;4182228;28;20057;-89
2022/03/08 11:08:07;;;;;;;8.43;4.15;;;;;;;;;;4184010;28;20056;-88